Time;durP1;ratioP1;P1;durP2;ratioP2;P2;SDS_P1;SDS_P2;PMS_P1;PMS_P2;Temp;Humidity;BMP_temperature;BMP_pressure;BME280_temperature;BME280_humidity;BME280_pressure;Samples;Min_cycle;Max_cycle;Signal;HPM_P1;HPM_P2
2024/02/04 00:03:47;;;;;;;13.98;7.53;;;10.00;99.90;;;;;;8452661;27;20100;-72
2024/02/04 00:07:49;;;;;;;15.25;6.95;;;10.00;99.90;;;;;;8448652;27;20043;-72
2024/02/04 00:11:51;;;;;;;18.00;8.65;;;10.00;99.90;;;;;;8455679;27;20499;-72
2024/02/04 00:15:54;;;;;;;21.52;9.02;;;10.00;99.90;;;;;;8458467;27;20043;-72
2024/02/04 00:19:57;;;;;;;16.08;8.75;;;10.00;99.90;;;;;;8451254;27;20520;-72
2024/02/04 00:23:59;;;;;;;20.10;8.45;;;10.10;99.90;;;;;;8447918;27;20423;-72
2024/02/04 00:28:01;;;;;;;15.52;8.35;;;10.10;99.90;;;;;;8441502;28;20051;-72
2024/02/04 00:32:03;;;;;;;23.55;8.88;;;10.20;99.90;;;;;;8449251;28;20078;-72
2024/02/04 00:36:05;;;;;;;20.23;8.48;;;10.20;99.90;;;;;;8452694;28;20097;-72
2024/02/04 00:40:08;;;;;;;14.15;7.65;;;10.30;99.90;;;;;;8446199;28;20054;-72
2024/02/04 00:44:10;;;;;;;14.93;7.65;;;10.30;99.90;;;;;;8446474;28;20135;-72
2024/02/04 00:48:12;;;;;;;16.17;7.32;;;10.30;99.90;;;;;;8439639;27;20480;-72
2024/02/04 00:52:14;;;;;;;11.02;6.35;;;10.30;99.90;;;;;;8452326;27;20048;-72
2024/02/04 00:56:16;;;;;;;15.02;7.45;;;10.30;99.90;;;;;;8439747;28;20056;-72
2024/02/04 01:00:18;;;;;;;15.63;6.93;;;10.30;99.90;;;;;;8451483;27;20039;-72
2024/02/04 01:04:20;;;;;;;13.95;7.22;;;10.30;99.90;;;;;;8457355;27;20047;-72
2024/02/04 01:08:22;;;;;;;15.50;6.57;;;10.30;99.90;;;;;;8457094;27;20062;-72
2024/02/04 01:12:24;;;;;;;11.23;6.18;;;10.30;99.90;;;;;;8463847;27;20116;-72
2024/02/04 01:16:26;;;;;;;13.73;6.30;;;10.30;99.90;;;;;;8452399;27;20079;-72
2024/02/04 01:20:28;;;;;;;13.55;6.22;;;10.30;99.90;;;;;;8434922;27;20078;-72
2024/02/04 01:24:31;;;;;;;16.92;6.70;;;10.30;99.90;;;;;;8446501;28;20523;-72
2024/02/04 01:29:14;;;;;;;13.25;6.03;;;10.30;99.90;;;;;;8442013;27;20066;-72
2024/02/04 01:33:15;;;;;;;19.48;6.03;;;10.20;99.90;;;;;;8453854;27;20048;-71
2024/02/04 01:37:18;;;;;;;15.07;6.50;;;10.20;99.90;;;;;;8457927;27;20036;-72
2024/02/04 01:41:19;;;;;;;12.68;6.07;;;10.20;99.90;;;;;;8429475;27;20096;-72
2024/02/04 01:45:21;;;;;;;13.25;6.60;;;10.20;99.90;;;;;;8458022;27;20039;-72
2024/02/04 01:49:23;;;;;;;11.35;5.07;;;10.20;99.90;;;;;;8450637;27;20396;-72
2024/02/04 01:53:27;;;;;;;14.60;6.57;;;10.20;99.90;;;;;;8440881;28;20100;-72
2024/02/04 01:57:29;;;;;;;11.80;5.55;;;10.20;99.90;;;;;;8449707;28;20061;-72
2024/02/04 02:02:06;;;;;;;14.75;6.28;;;10.20;99.90;;;;;;8445095;27;20050;-71
2024/02/04 02:06:08;;;;;;;14.30;5.97;;;10.20;99.90;;;;;;8458394;27;20048;-72
2024/02/04 02:10:10;;;;;;;15.63;7.32;;;10.20;99.90;;;;;;8434927;28;20051;-72
2024/02/04 02:14:22;;;;;;;14.70;7.13;;;10.20;99.90;;;;;;8452360;27;20046;-72
2024/02/04 02:18:45;;;;;;;13.13;6.40;;;10.20;99.90;;;;;;8460632;28;20108;-72
2024/02/04 02:22:48;;;;;;;17.50;7.43;;;10.20;99.90;;;;;;8423438;27;20503;-72
2024/02/04 02:26:51;;;;;;;17.42;8.35;;;10.20;99.90;;;;;;8453256;27;20043;-72
2024/02/04 02:30:52;;;;;;;15.68;7.85;;;10.20;99.90;;;;;;8456367;27;20134;-72
2024/02/04 02:35:00;;;;;;;15.15;7.38;;;10.20;99.90;;;;;;8450616;27;20082;-72
2024/02/04 02:39:10;;;;;;;15.32;7.30;;;10.20;99.90;;;;;;8458027;27;20457;-72
2024/02/04 02:43:13;;;;;;;13.77;7.07;;;10.20;99.90;;;;;;8456422;27;20054;-72
2024/02/04 02:47:16;;;;;;;12.95;6.63;;;10.20;99.90;;;;;;8437392;27;20051;-72
2024/02/04 02:51:18;;;;;;;15.05;7.32;;;10.20;99.90;;;;;;8451609;28;20213;-72
2024/02/04 02:55:20;;;;;;;13.55;6.78;;;10.20;99.90;;;;;;8445872;27;20404;-72
2024/02/04 02:59:22;;;;;;;12.23;5.65;;;10.10;99.90;;;;;;8441315;27;20112;-72
2024/02/04 03:03:24;;;;;;;14.85;6.00;;;10.10;99.90;;;;;;8432594;28;20055;-72
2024/02/04 03:07:26;;;;;;;16.80;6.70;;;10.10;99.90;;;;;;8433958;28;20050;-72
2024/02/04 03:11:27;;;;;;;11.07;5.60;;;10.10;99.90;;;;;;8449731;27;20063;-72
2024/02/04 03:15:29;;;;;;;12.45;6.18;;;10.00;99.90;;;;;;8432884;28;20111;-72
2024/02/04 03:19:31;;;;;;;11.88;5.95;;;10.00;99.90;;;;;;8447830;28;20532;-72
2024/02/04 03:23:33;;;;;;;12.10;6.65;;;10.00;99.90;;;;;;8448619;28;20050;-72
2024/02/04 03:27:35;;;;;;;12.48;6.03;;;10.00;99.90;;;;;;8436920;27;20436;-71
2024/02/04 03:31:37;;;;;;;13.10;5.90;;;10.00;99.90;;;;;;8437625;27;20046;-72
2024/02/04 03:35:38;;;;;;;12.45;6.05;;;9.90;99.90;;;;;;8427381;27;20398;-72
2024/02/04 03:39:40;;;;;;;15.57;5.88;;;9.90;99.90;;;;;;8453397;27;20359;-72
2024/02/04 03:43:42;;;;;;;13.90;5.35;;;9.90;99.90;;;;;;8453501;27;20050;-72
2024/02/04 03:47:45;;;;;;;14.50;5.22;;;9.90;99.90;;;;;;8437198;27;20402;-71
2024/02/04 03:51:47;;;;;;;13.65;5.47;;;9.90;99.90;;;;;;8443943;27;20043;-72
2024/02/04 03:55:49;;;;;;;12.75;4.80;;;9.90;99.90;;;;;;8453184;27;20050;-72
2024/02/04 03:59:51;;;;;;;11.80;5.05;;;9.90;99.90;;;;;;8452015;27;20051;-72
2024/02/04 04:03:53;;;;;;;13.23;5.13;;;9.90;99.90;;;;;;8451254;27;20048;-72
2024/02/04 04:07:54;;;;;;;11.63;5.00;;;9.90;99.90;;;;;;8424733;27;20039;-72
2024/02/04 04:12:49;;;;;;;12.82;4.85;;;9.90;99.90;;;;;;8448194;27;20047;-72
2024/02/04 04:16:51;;;;;;;8.75;3.35;;;9.90;99.90;;;;;;8451676;27;20513;-72
2024/02/04 04:20:53;;;;;;;11.30;4.40;;;9.80;99.90;;;;;;8457034;27;20055;-72
2024/02/04 04:24:55;;;;;;;10.45;4.28;;;9.80;99.90;;;;;;8458854;27;20055;-72
2024/02/04 04:28:56;;;;;;;11.02;3.58;;;9.70;99.90;;;;;;8429739;28;20435;-72
2024/02/04 04:32:59;;;;;;;12.90;4.20;;;9.60;99.90;;;;;;8452091;28;20146;-73
2024/02/04 04:37:01;;;;;;;9.07;4.20;;;9.60;99.90;;;;;;8449816;28;20055;-73
2024/02/04 04:41:03;;;;;;;9.35;4.05;;;9.50;99.90;;;;;;8436558;28;20055;-73
2024/02/04 04:45:05;;;;;;;12.07;4.90;;;9.50;99.90;;;;;;8447305;28;20052;-73
2024/02/04 04:54:30;;;;;;;9.10;3.70;;;9.50;99.90;;;;;;8446190;28;20535;-73
2024/02/04 04:58:31;;;;;;;8.93;4.43;;;9.50;99.90;;;;;;8439707;28;20044;-73
2024/02/04 05:02:33;;;;;;;13.00;4.22;;;9.50;99.90;;;;;;8447713;28;20044;-73
2024/02/04 05:06:35;;;;;;;8.77;4.80;;;9.50;99.90;;;;;;8451982;28;20149;-72
2024/02/04 05:10:37;;;;;;;8.63;3.75;;;9.50;99.90;;;;;;8428826;28;20040;-72
2024/02/04 05:14:39;;;;;;;11.35;4.15;;;9.50;99.90;;;;;;8431915;28;20491;-72
2024/02/04 05:18:41;;;;;;;10.60;5.22;;;9.40;99.90;;;;;;8454939;28;20038;-72
2024/02/04 05:22:43;;;;;;;9.25;4.38;;;9.40;99.90;;;;;;8456419;28;20383;-72
2024/02/04 05:26:45;;;;;;;10.73;4.65;;;9.40;99.90;;;;;;8445427;28;20069;-72
2024/02/04 05:30:46;;;;;;;14.60;5.25;;;9.40;99.90;;;;;;8448118;28;20040;-72
2024/02/04 05:34:48;;;;;;;14.95;5.13;;;9.40;99.90;;;;;;8456963;27;20100;-72
2024/02/04 05:38:50;;;;;;;10.55;4.70;;;9.40;99.90;;;;;;8459919;27;20083;-72
2024/02/04 05:42:52;;;;;;;11.35;4.97;;;9.40;99.90;;;;;;8436096;27;20487;-72
2024/02/04 05:46:54;;;;;;;14.25;6.78;;;9.40;99.90;;;;;;8460393;27;20135;-72
2024/02/04 05:50:56;;;;;;;13.50;6.78;;;9.50;99.90;;;;;;8457090;27;20097;-72
2024/02/04 05:54:57;;;;;;;18.60;7.63;;;9.50;99.90;;;;;;8457180;28;20533;-72
2024/02/04 05:59:04;;;;;;;16.30;7.93;;;9.50;99.90;;;;;;8459837;27;20056;-72
2024/02/04 06:03:06;;;;;;;19.50;8.15;;;9.60;99.90;;;;;;8456910;27;20047;-72
2024/02/04 06:07:08;;;;;;;15.65;7.90;;;9.60;99.90;;;;;;8451217;27;20100;-72
2024/02/04 06:11:11;;;;;;;17.40;8.70;;;9.60;99.90;;;;;;8438744;27;20051;-72
2024/02/04 06:15:16;;;;;;;18.70;9.75;;;9.60;99.90;;;;;;8439999;27;20119;-72
2024/02/04 06:19:18;;;;;;;15.88;8.88;;;9.60;99.90;;;;;;8437768;27;20121;-71
2024/02/04 06:23:20;;;;;;;18.83;8.60;;;9.70;99.90;;;;;;8447364;28;20744;-72
2024/02/04 06:27:22;;;;;;;22.38;10.77;;;9.70;99.90;;;;;;8448196;28;20051;-72
2024/02/04 06:31:24;;;;;;;20.63;10.07;;;9.70;99.90;;;;;;8453472;28;20048;-72
2024/02/04 06:35:26;;;;;;;16.95;8.30;;;9.60;99.90;;;;;;8449823;28;20113;-72
2024/02/04 06:39:28;;;;;;;17.23;9.30;;;9.70;99.90;;;;;;8450772;28;20036;-72
2024/02/04 06:43:30;;;;;;;18.00;10.05;;;9.70;99.90;;;;;;8453114;28;20411;-72
2024/02/04 06:47:36;;;;;;;16.98;10.00;;;9.70;99.90;;;;;;8444845;28;20063;-72
2024/02/04 06:51:37;;;;;;;17.75;9.93;;;9.70;99.90;;;;;;8430118;28;20360;-72
2024/02/04 06:55:39;;;;;;;17.30;8.68;;;9.70;99.90;;;;;;8437619;28;20172;-72
2024/02/04 06:59:41;;;;;;;16.15;8.15;;;9.70;99.90;;;;;;8443634;28;20483;-72
2024/02/04 07:03:43;;;;;;;17.65;9.20;;;9.80;99.90;;;;;;8454573;28;20048;-72
2024/02/04 07:07:45;;;;;;;12.70;7.10;;;9.80;99.90;;;;;;8449198;28;20043;-72
2024/02/04 07:11:47;;;;;;;15.70;8.13;;;9.80;99.90;;;;;;8447450;28;20052;-72
2024/02/04 07:15:49;;;;;;;12.80;6.88;;;9.80;99.90;;;;;;8449244;27;20048;-72
2024/02/04 07:19:51;;;;;;;14.98;6.95;;;9.80;99.90;;;;;;8447940;28;20050;-72
2024/02/04 07:23:53;;;;;;;10.10;6.07;;;9.80;99.90;;;;;;8454483;28;20458;-72
2024/02/04 07:27:56;;;;;;;10.80;5.90;;;9.80;99.90;;;;;;8440041;28;20047;-72
2024/02/04 07:31:58;;;;;;;11.25;5.95;;;9.80;99.90;;;;;;8456338;28;20105;-71
2024/02/04 07:36:00;;;;;;;12.77;6.68;;;9.90;99.90;;;;;;8445218;28;20051;-71
2024/02/04 07:40:02;;;;;;;14.35;6.47;;;9.90;99.90;;;;;;8459512;28;20606;-72
2024/02/04 07:44:04;;;;;;;17.50;8.13;;;9.90;99.90;;;;;;8439232;28;20051;-72
2024/02/04 07:48:09;;;;;;;13.82;7.50;;;9.80;99.90;;;;;;8457659;27;20086;-71
2024/02/04 07:52:10;;;;;;;12.88;6.50;;;9.80;99.90;;;;;;8449523;28;20139;-71
2024/02/04 07:56:12;;;;;;;16.40;7.25;;;9.90;99.90;;;;;;8455874;28;20052;-71
2024/02/04 08:00:14;;;;;;;13.80;6.53;;;9.90;99.90;;;;;;8453904;28;20052;-72
2024/02/04 08:04:16;;;;;;;13.55;6.63;;;9.90;99.90;;;;;;8435250;28;20135;-71
2024/02/04 08:08:19;;;;;;;9.65;5.45;;;9.90;99.90;;;;;;8437054;28;20043;-71
2024/02/04 08:12:20;;;;;;;12.25;6.15;;;9.90;99.90;;;;;;8454799;28;20442;-72
2024/02/04 08:16:22;;;;;;;12.98;5.53;;;9.90;99.90;;;;;;8455575;28;20051;-72
2024/02/04 08:20:24;;;;;;;11.98;5.65;;;9.90;99.90;;;;;;8441974;28;20391;-72
2024/02/04 08:24:26;;;;;;;10.45;5.00;;;9.90;99.90;;;;;;8431083;28;20044;-72
2024/02/04 08:28:28;;;;;;;11.27;4.65;;;9.80;99.90;;;;;;8431082;28;20051;-72
2024/02/04 08:32:29;;;;;;;7.43;4.13;;;9.80;99.90;;;;;;8446939;28;20051;-72
2024/02/04 08:36:32;;;;;;;7.05;3.80;;;9.80;99.90;;;;;;8447784;28;20044;-72
2024/02/04 08:40:34;;;;;;;8.52;4.18;;;9.80;99.90;;;;;;8450120;28;20355;-72
2024/02/04 08:44:35;;;;;;;12.27;5.03;;;9.80;99.90;;;;;;8456483;28;20725;-71
2024/02/04 08:48:43;;;;;;;10.90;5.90;;;9.80;99.90;;;;;;8450961;28;20523;-72
2024/02/04 08:52:45;;;;;;;10.77;5.63;;;9.80;99.90;;;;;;8455580;28;20092;-72
2024/02/04 08:56:47;;;;;;;14.77;6.22;;;9.90;99.90;;;;;;8454501;28;20386;-71
2024/02/04 09:00:49;;;;;;;9.57;5.78;;;9.90;99.90;;;;;;8436939;28;20083;-72
2024/02/04 09:04:51;;;;;;;11.30;5.40;;;9.90;99.90;;;;;;8454711;28;20044;-72
2024/02/04 09:08:53;;;;;;;8.95;5.13;;;10.00;99.90;;;;;;8451436;28;20122;-72
2024/02/04 09:12:55;;;;;;;7.50;4.40;;;10.10;99.90;;;;;;8458924;28;20483;-72
2024/02/04 09:16:57;;;;;;;8.00;3.63;;;10.20;99.90;;;;;;8442862;28;20074;-72
2024/02/04 09:20:59;;;;;;;8.35;3.80;;;10.30;99.90;;;;;;8455542;28;20061;-72
2024/02/04 09:25:01;;;;;;;9.25;3.75;;;10.40;99.90;;;;;;8448997;28;20536;-72
2024/02/04 09:29:40;;;;;;;7.13;3.33;;;10.40;99.90;;;;;;8451993;27;20058;-71
2024/02/04 09:33:42;;;;;;;9.00;3.25;;;10.50;99.90;;;;;;8458089;28;20044;-71
2024/02/04 09:37:44;;;;;;;8.30;3.05;;;10.60;99.90;;;;;;8445526;28;20043;-71
2024/02/04 09:47:09;;;;;;;6.70;2.25;;;10.70;99.90;;;;;;8458979;27;20030;-71
2024/02/04 09:51:11;;;;;;;6.50;2.25;;;10.70;99.90;;;;;;8440309;28;20039;-72
2024/02/04 09:55:16;;;;;;;5.25;1.95;;;10.80;99.90;;;;;;8453853;28;20173;-71
2024/02/04 09:59:18;;;;;;;7.35;2.20;;;10.80;99.90;;;;;;8457680;28;20058;-71
2024/02/04 10:03:35;;;;;;;4.22;1.80;;;10.80;99.90;;;;;;8437489;28;20040;-72
2024/02/04 10:07:38;;;;;;;4.28;1.92;;;10.90;99.90;;;;;;8443840;28;20044;-72
2024/02/04 10:11:40;;;;;;;3.97;2.00;;;10.90;99.90;;;;;;8452567;27;20047;-71
2024/02/04 10:16:34;;;;;;;4.47;1.88;;;10.90;99.90;;;;;;8446197;28;20040;-71
2024/02/04 10:20:36;;;;;;;6.20;1.92;;;11.00;99.90;;;;;;8439447;28;20394;-71
2024/02/04 10:24:38;;;;;;;3.67;1.42;;;11.00;99.90;;;;;;8437625;28;20044;-71
2024/02/04 10:28:41;;;;;;;6.13;1.83;;;11.00;99.90;;;;;;8450143;28;20158;-71
2024/02/04 10:32:44;;;;;;;5.63;1.40;;;11.00;99.90;;;;;;8455939;28;20050;-71
2024/02/04 10:36:46;;;;;;;4.40;1.52;;;11.10;99.90;;;;;;8453908;28;20084;-72
2024/02/04 10:40:53;;;;;;;3.13;1.23;;;11.10;99.90;;;;;;8447926;27;20054;-72
2024/02/04 10:44:57;;;;;;;3.45;1.20;;;11.10;99.90;;;;;;8451968;28;20044;-71
2024/02/04 10:49:03;;;;;;;2.85;1.10;;;11.10;99.90;;;;;;8455046;28;20058;-72
2024/02/04 10:53:07;;;;;;;2.25;1.15;;;11.00;99.90;;;;;;8453425;28;20047;-72
2024/02/04 10:57:13;;;;;;;3.60;1.58;;;10.90;99.90;;;;;;8452952;28;20062;-72
2024/02/04 11:01:16;;;;;;;3.53;1.67;;;10.70;99.90;;;;;;8441645;28;20380;-72
2024/02/04 11:05:18;;;;;;;4.15;2.03;;;10.70;99.90;;;;;;8452794;28;20052;-72
2024/02/04 11:09:21;;;;;;;6.68;2.90;;;10.60;99.90;;;;;;8446661;28;20062;-73
2024/02/04 11:13:24;;;;;;;5.35;2.60;;;10.60;99.90;;;;;;8442374;28;20043;-72
2024/02/04 11:17:41;;;;;;;4.70;2.40;;;10.60;99.90;;;;;;8432903;28;20431;-72
2024/02/04 11:21:46;;;;;;;4.00;2.17;;;10.50;99.90;;;;;;8453079;28;20069;-72
2024/02/04 11:26:31;;;;;;;5.75;2.35;;;10.50;99.90;;;;;;8449219;28;20051;-72
2024/02/04 11:30:35;;;;;;;7.47;3.00;;;10.50;99.90;;;;;;8451581;28;20059;-73
2024/02/04 11:34:38;;;;;;;6.07;3.50;;;10.40;99.90;;;;;;8444110;27;20065;-73
2024/02/04 11:38:40;;;;;;;8.57;3.90;;;10.40;99.90;;;;;;8453621;28;20043;-72
2024/02/04 11:42:42;;;;;;;9.32;4.28;;;10.40;99.90;;;;;;8441590;28;20417;-72
2024/02/04 11:46:48;;;;;;;9.73;4.45;;;10.40;99.90;;;;;;8426657;28;20340;-72
2024/02/04 11:50:55;;;;;;;8.93;4.13;;;10.40;99.90;;;;;;8432750;28;20059;-72
2024/02/04 11:54:58;;;;;;;9.27;4.18;;;10.40;99.90;;;;;;8451352;28;20067;-72
2024/02/04 11:59:01;;;;;;;9.20;3.97;;;10.40;99.90;;;;;;8451089;28;20062;-72
2024/02/04 12:03:04;;;;;;;6.65;3.72;;;10.40;99.90;;;;;;8456251;28;20109;-72
2024/02/04 12:07:08;;;;;;;8.70;3.97;;;10.40;99.90;;;;;;8453030;28;20047;-72
2024/02/04 12:11:10;;;;;;;8.60;3.92;;;10.50;99.90;;;;;;8455931;28;20049;-72
2024/02/04 12:15:12;;;;;;;9.38;3.92;;;10.50;99.90;;;;;;8430819;28;20152;-72
2024/02/04 12:19:14;;;;;;;8.25;3.53;;;10.60;99.90;;;;;;8431650;28;20055;-72
2024/02/04 12:23:18;;;;;;;8.68;3.35;;;10.60;99.90;;;;;;8430670;28;20659;-72
2024/02/04 12:27:20;;;;;;;8.20;3.50;;;10.70;99.90;;;;;;8443291;27;20047;-72
2024/02/04 12:31:31;;;;;;;7.38;3.28;;;10.80;99.90;;;;;;8423437;28;20752;-72
2024/02/04 12:35:33;;;;;;;7.75;3.42;;;10.90;99.90;;;;;;8418264;28;20051;-72
2024/02/04 12:39:35;;;;;;;8.20;3.13;;;10.90;99.90;;;;;;8421570;28;20190;-72
2024/02/04 12:43:36;;;;;;;7.72;3.17;;;11.00;99.90;;;;;;8412662;28;20065;-72
2024/02/04 12:47:38;;;;;;;5.95;2.70;;;11.00;99.90;;;;;;8400028;28;20060;-72
2024/02/04 12:51:40;;;;;;;7.05;3.00;;;11.00;99.90;;;;;;8413928;28;20048;-72
2024/02/04 12:55:42;;;;;;;6.68;3.00;;;11.10;99.90;;;;;;8419917;28;20044;-72
2024/02/04 12:59:45;;;;;;;8.23;2.72;;;11.00;99.90;;;;;;8424253;28;20048;-72
2024/02/04 13:03:50;;;;;;;7.07;2.50;;;11.00;99.90;;;;;;8426599;28;20047;-71
2024/02/04 13:07:56;;;;;;;5.82;2.50;;;11.00;99.90;;;;;;8414450;28;20480;-72
2024/02/04 13:12:05;;;;;;;8.07;3.65;;;10.90;99.90;;;;;;8422230;28;20051;-72
2024/02/04 13:16:07;;;;;;;7.40;3.22;;;10.90;99.90;;;;;;8415794;28;20411;-72
2024/02/04 13:20:09;;;;;;;8.68;3.42;;;11.00;99.90;;;;;;8418810;28;20040;-72
2024/02/04 13:24:11;;;;;;;7.50;3.45;;;11.00;99.90;;;;;;8421749;28;20400;-71
2024/02/04 13:28:13;;;;;;;9.52;4.05;;;11.10;99.90;;;;;;8422261;28;20035;-72
2024/02/04 13:32:15;;;;;;;6.40;3.67;;;11.20;99.90;;;;;;8419570;28;21330;-71
2024/02/04 13:36:17;;;;;;;6.68;3.40;;;11.20;99.90;;;;;;8413547;28;20509;-72
2024/02/04 13:40:20;;;;;;;8.73;3.35;;;11.20;99.90;;;;;;8403798;28;20036;-71
2024/02/04 13:44:22;;;;;;;7.97;3.70;;;11.20;99.90;;;;;;8412784;28;20503;-72
2024/02/04 13:48:25;;;;;;;8.43;3.20;;;11.20;99.90;;;;;;8418686;28;20551;-73
2024/02/04 13:52:27;;;;;;;10.20;3.17;;;11.10;99.90;;;;;;8427980;28;20139;-72
2024/02/04 13:56:29;;;;;;;10.05;3.85;;;11.10;99.90;;;;;;8423965;28;20044;-72
2024/02/04 14:00:31;;;;;;;9.20;3.05;;;11.00;99.90;;;;;;8424895;28;20494;-72
2024/02/04 14:04:33;;;;;;;7.43;2.70;;;11.10;99.90;;;;;;8433093;28;20147;-72
2024/02/04 14:08:35;;;;;;;7.45;2.50;;;11.10;99.90;;;;;;8430423;28;20053;-72
2024/02/04 14:12:38;;;;;;;9.73;2.33;;;11.10;99.90;;;;;;8442385;28;20051;-72
2024/02/04 14:16:40;;;;;;;5.22;2.65;;;11.20;99.90;;;;;;8435327;27;24728;-72
2024/02/04 14:20:42;;;;;;;6.32;1.95;;;11.20;99.90;;;;;;8435430;28;20074;-72
2024/02/04 14:24:45;;;;;;;6.25;2.42;;;11.20;99.90;;;;;;8441228;28;20055;-71
2024/02/04 14:28:48;;;;;;;13.23;2.65;;;11.20;99.90;;;;;;8435112;28;20048;-72
2024/02/04 14:32:50;;;;;;;4.18;1.92;;;11.20;99.90;;;;;;8433802;28;20074;-72
2024/02/04 14:36:51;;;;;;;6.90;2.35;;;11.20;99.90;;;;;;8427053;28;20073;-72
2024/02/04 14:40:59;;;;;;;6.68;2.63;;;11.20;99.90;;;;;;8405536;27;20036;-71
2024/02/04 14:45:02;;;;;;;6.47;2.55;;;11.30;99.90;;;;;;8428039;27;20052;-73
2024/02/04 14:54:19;;;;;;;7.68;3.00;;;11.20;99.90;;;;;;8423124;28;20027;-72
2024/02/04 14:58:21;;;;;;;11.32;3.33;;;11.20;99.90;;;;;;8423265;27;20656;-72
2024/02/04 15:02:23;;;;;;;12.40;3.92;;;11.10;99.90;;;;;;8426125;28;20048;-72
2024/02/04 15:06:25;;;;;;;13.73;3.72;;;11.00;99.90;;;;;;8416799;28;20151;-71
2024/02/04 15:10:27;;;;;;;8.15;2.97;;;11.00;99.90;;;;;;8422448;28;20047;-71
2024/02/04 15:14:29;;;;;;;9.20;3.17;;;10.90;99.90;;;;;;8425019;28;20089;-72
2024/02/04 15:18:31;;;;;;;7.03;4.18;;;10.90;99.90;;;;;;8422118;27;20044;-72
2024/02/04 15:22:34;;;;;;;12.30;3.40;;;10.90;99.90;;;;;;8407859;28;20118;-71
2024/02/04 15:26:40;;;;;;;8.98;3.15;;;10.90;99.90;;;;;;8424170;28;20051;-72
2024/02/04 15:30:42;;;;;;;10.75;3.45;;;10.90;99.90;;;;;;8422280;28;20400;-72
2024/02/04 15:34:44;;;;;;;11.00;3.35;;;10.90;99.90;;;;;;8420867;28;20048;-72
2024/02/04 15:38:46;;;;;;;11.15;3.05;;;10.90;99.90;;;;;;8408193;28;20510;-72
2024/02/04 15:42:48;;;;;;;10.10;3.00;;;11.00;99.90;;;;;;8411873;28;20406;-72
2024/02/04 15:46:53;;;;;;;7.13;2.47;;;11.00;99.90;;;;;;8425786;28;20425;-72
2024/02/04 15:50:56;;;;;;;10.60;3.45;;;11.00;99.90;;;;;;8421012;28;20100;-72
2024/02/04 15:54:58;;;;;;;8.30;3.28;;;11.00;99.90;;;;;;8430874;28;20109;-72
2024/02/04 15:59:11;;;;;;;11.05;3.47;;;11.10;99.90;;;;;;8402583;28;20052;-72
2024/02/04 16:03:13;;;;;;;9.43;3.63;;;11.10;99.90;;;;;;8408972;28;20044;-72
2024/02/04 16:07:21;;;;;;;10.68;3.33;;;11.10;99.90;;;;;;8424657;28;20039;-72
2024/02/04 16:11:25;;;;;;;12.07;3.00;;;11.20;99.90;;;;;;8429660;28;20131;-72
2024/02/04 16:15:28;;;;;;;10.32;3.47;;;11.20;99.90;;;;;;8426834;28;20051;-72
2024/02/04 16:19:32;;;;;;;11.27;3.10;;;11.20;99.90;;;;;;8414196;28;20136;-72
2024/02/04 16:23:34;;;;;;;15.85;3.28;;;11.10;99.90;;;;;;8421807;27;20223;-72
2024/02/04 16:27:36;;;;;;;15.80;3.20;;;11.10;99.90;;;;;;8414806;28;20105;-72
2024/02/04 16:31:38;;;;;;;14.60;3.53;;;11.10;99.90;;;;;;8421720;28;20062;-72
2024/02/04 16:36:30;;;;;;;14.77;3.42;;;11.10;99.90;;;;;;8418668;28;20052;-72
2024/02/04 16:40:32;;;;;;;11.85;3.30;;;11.00;99.90;;;;;;8418643;28;20084;-72
2024/02/04 16:44:34;;;;;;;11.23;2.78;;;11.00;99.90;;;;;;8423054;28;20410;-72
2024/02/04 16:48:36;;;;;;;13.23;3.97;;;11.00;99.90;;;;;;8421755;28;20044;-72
2024/02/04 16:52:38;;;;;;;13.65;3.03;;;11.00;99.90;;;;;;8420282;28;20090;-72
2024/02/04 16:56:40;;;;;;;11.35;3.65;;;10.90;99.90;;;;;;8420090;28;20392;-72
2024/02/04 17:00:45;;;;;;;9.93;3.50;;;10.90;99.90;;;;;;8401676;28;20476;-72
2024/02/04 17:04:51;;;;;;;8.93;3.42;;;11.00;99.90;;;;;;8422270;28;20052;-72
2024/02/04 17:08:54;;;;;;;13.25;4.10;;;10.90;99.90;;;;;;8419796;28;20040;-72
2024/02/04 17:12:57;;;;;;;11.07;3.90;;;11.00;99.90;;;;;;8406570;28;20130;-72
2024/02/04 17:17:10;;;;;;;9.43;3.22;;;10.90;99.90;;;;;;8419511;28;20071;-72
2024/02/04 17:21:14;;;;;;;14.63;3.75;;;11.00;99.90;;;;;;8420356;28;20045;-72
2024/02/04 17:25:17;;;;;;;11.75;3.28;;;10.90;99.90;;;;;;8425165;28;20100;-72
2024/02/04 17:29:22;;;;;;;11.27;3.50;;;10.90;99.90;;;;;;8417874;27;20098;-72
2024/02/04 17:33:47;;;;;;;11.23;4.22;;;11.00;99.90;;;;;;8421738;28;20066;-72
2024/02/04 17:37:51;;;;;;;8.88;3.65;;;11.00;99.90;;;;;;8419958;28;20076;-72
2024/02/04 17:41:54;;;;;;;13.77;4.22;;;10.90;99.90;;;;;;8428349;28;20044;-72
2024/02/04 17:45:56;;;;;;;13.38;4.40;;;10.90;99.90;;;;;;8426301;28;20058;-72
2024/02/04 17:49:58;;;;;;;12.43;4.00;;;11.00;99.90;;;;;;8417547;28;20050;-73
2024/02/04 17:54:00;;;;;;;12.23;4.28;;;11.00;99.90;;;;;;8439793;27;20086;-73
2024/02/04 17:58:03;;;;;;;12.73;3.83;;;11.00;99.90;;;;;;8421190;28;20268;-72
2024/02/04 18:02:06;;;;;;;8.05;3.42;;;11.00;99.90;;;;;;8428751;28;20055;-73
2024/02/04 18:06:08;;;;;;;12.63;4.13;;;11.00;99.90;;;;;;8424797;27;20056;-73
2024/02/04 18:10:10;;;;;;;11.80;3.83;;;11.00;99.90;;;;;;8428235;28;20051;-72
2024/02/04 18:14:12;;;;;;;12.82;3.63;;;11.00;99.90;;;;;;8421758;27;20105;-73
2024/02/04 18:18:14;;;;;;;11.98;3.58;;;11.00;99.90;;;;;;8411392;28;20097;-73
2024/02/04 18:27:40;;;;;;;9.52;3.30;;;11.00;99.90;;;;;;8430209;27;20084;-72
2024/02/04 18:31:45;;;;;;;13.07;3.97;;;11.00;99.90;;;;;;8426901;28;20048;-72
2024/02/04 18:35:47;;;;;;;9.20;3.08;;;11.10;99.90;;;;;;8429683;28;20411;-72
2024/02/04 18:39:49;;;;;;;10.32;3.00;;;11.10;99.90;;;;;;8436000;28;20044;-73
2024/02/04 18:43:53;;;;;;;14.18;3.50;;;11.10;99.90;;;;;;8425994;27;20093;-73
2024/02/04 18:47:57;;;;;;;17.60;5.22;;;11.10;99.90;;;;;;8416424;28;20109;-73
2024/02/04 18:51:58;;;;;;;10.23;3.92;;;11.10;99.90;;;;;;8419023;28;20449;-73
2024/02/04 18:56:04;;;;;;;10.02;2.97;;;11.20;99.90;;;;;;8430518;27;20048;-72
2024/02/04 19:05:41;;;;;;;17.33;3.35;;;11.10;99.90;;;;;;8431796;28;20058;-72
2024/02/04 19:09:43;;;;;;;13.75;3.53;;;11.20;99.90;;;;;;8440826;28;20056;-72
2024/02/04 19:13:45;;;;;;;9.82;2.95;;;11.20;99.90;;;;;;8415199;28;20119;-72
2024/02/04 19:17:47;;;;;;;10.68;3.03;;;11.20;99.90;;;;;;8427808;27;20461;-72
2024/02/04 19:21:49;;;;;;;11.02;3.28;;;11.20;99.90;;;;;;8410625;28;20062;-73
2024/02/04 19:25:51;;;;;;;9.93;2.90;;;11.20;99.90;;;;;;8426426;28;20048;-73
2024/02/04 19:29:53;;;;;;;13.32;3.00;;;11.20;99.90;;;;;;8422076;28;20530;-72
2024/02/04 19:33:54;;;;;;;15.35;3.25;;;11.20;99.90;;;;;;8425983;28;20040;-73
2024/02/04 19:37:56;;;;;;;14.05;3.80;;;11.20;99.90;;;;;;8430574;27;20078;-73
2024/02/04 19:41:59;;;;;;;12.60;3.53;;;11.20;99.90;;;;;;8418888;28;20044;-73
2024/02/04 19:46:01;;;;;;;9.35;3.05;;;11.20;99.90;;;;;;8418342;28;20075;-73
2024/02/04 19:50:05;;;;;;;13.10;3.83;;;11.20;99.90;;;;;;8423356;28;20062;-73
2024/02/04 19:54:08;;;;;;;16.58;3.72;;;11.20;99.90;;;;;;8421873;27;20399;-73
2024/02/04 20:03:33;;;;;;;13.80;3.63;;;11.20;99.90;;;;;;8429693;28;20023;-73
2024/02/04 20:07:35;;;;;;;15.63;4.30;;;11.20;99.90;;;;;;8433198;28;20051;-73
2024/02/04 20:11:37;;;;;;;13.15;3.88;;;11.20;99.90;;;;;;8428360;28;20093;-73
2024/02/04 20:15:39;;;;;;;10.07;3.58;;;11.20;99.90;;;;;;8438123;28;20044;-72
2024/02/04 20:19:42;;;;;;;11.20;3.05;;;11.20;99.90;;;;;;8424153;28;20047;-73
2024/02/04 20:23:44;;;;;;;13.95;3.25;;;11.20;99.90;;;;;;8424624;28;20048;-72
2024/02/04 20:27:46;;;;;;;11.27;2.83;;;11.20;99.90;;;;;;8423335;28;20100;-72
2024/02/04 20:31:49;;;;;;;10.95;3.20;;;11.20;99.90;;;;;;8421173;28;20131;-72
2024/02/04 20:35:51;;;;;;;10.38;3.22;;;11.20;99.90;;;;;;8427772;28;20036;-73
2024/02/04 20:39:56;;;;;;;11.98;3.03;;;11.20;99.90;;;;;;8424226;28;20067;-73
2024/02/04 20:43:58;;;;;;;11.75;3.50;;;11.10;99.90;;;;;;8421391;28;20056;-72
2024/02/04 20:48:00;;;;;;;20.70;4.47;;;11.10;99.90;;;;;;8417898;28;20443;-72
2024/02/04 20:52:02;;;;;;;13.63;3.33;;;11.10;99.90;;;;;;8424060;28;20064;-73
2024/02/04 20:56:05;;;;;;;18.73;3.60;;;11.10;99.90;;;;;;8422649;28;20407;-73
2024/02/04 21:00:07;;;;;;;10.65;3.28;;;11.10;99.90;;;;;;8416977;28;22721;-72
2024/02/04 21:04:10;;;;;;;13.70;3.97;;;11.10;99.90;;;;;;8433663;28;20048;-72
2024/02/04 21:08:12;;;;;;;11.30;3.50;;;11.10;99.90;;;;;;8428677;28;20080;-73
2024/02/04 21:12:14;;;;;;;11.75;3.65;;;11.10;99.90;;;;;;8431912;28;20051;-72
2024/02/04 21:16:17;;;;;;;12.35;3.75;;;11.10;99.90;;;;;;8431029;27;20044;-73
2024/02/04 21:20:20;;;;;;;17.42;3.60;;;11.10;99.90;;;;;;8423300;28;20054;-72
2024/02/04 21:24:23;;;;;;;10.55;2.90;;;11.10;99.90;;;;;;8427489;27;20039;-72
2024/02/04 21:28:26;;;;;;;9.80;2.65;;;11.20;99.90;;;;;;8430160;28;20055;-72
2024/02/04 21:32:28;;;;;;;10.93;3.17;;;11.20;99.90;;;;;;8415054;28;20058;-72
2024/02/04 21:37:10;;;;;;;15.02;3.13;;;11.20;99.90;;;;;;8430577;28;20047;-72